Flight Track Log - Related Links

Times and Time Zones

All times are in EDT time to prevent confusion due to time zone crossing. See the SWA2131 flight status page for this flight to view local times or setup timezone preferences in your user account.

Time Position Orientation Groundspeed Altitude Reporting Facility
EDT Latitude Longitude Course Direction KTS MPH feet Rate Location/Type
Sat 01:12:58 PM 32.7500 -117.3000 270° West 237 273 4,200  Level Southern California TRACON
Sat 01:13:58 PM 32.7000 -117.3167 196° South 293 337 8,000 3,000 Climbing Southern California TRACON
Sat 01:15:14 PM 32.6492 -117.2261 124° Southeast 301 346 11,000 2,870 Climbing Los Angeles Center
Sat 01:16:16 PM 32.6258 -117.0853 101° East 355 409 14,600 3,097 Climbing Los Angeles Center
Sat 01:17:18 PM 32.6117 -116.9589 98° East 378 435 17,400 2,661 Climbing Los Angeles Center
Sat 01:18:20 PM 32.6261 -116.8267 83° East 401 461 20,100 2,516 Climbing Los Angeles Center
Sat 01:19:22 PM 32.7067 -116.7422 41° Northeast 403 464 22,600 1,403 Climbing Los Angeles Center
Sat 01:20:24 PM 32.8100 -116.6897 23° Northeast 405 466 23,000 1,016 Climbing Los Angeles Center
Sat 01:21:26 PM 32.9131 -116.6244 28° Northeast 412 474 24,700 1,742 Climbing Los Angeles Center
Sat 01:22:28 PM 33.0214 -116.5539 29° Northeast 432 497 26,600 1,113 Climbing Los Angeles Center
Sat 01:23:30 PM 33.1281 -116.4853 28° Northeast 431 496 27,000 968 Climbing Los Angeles Center
Sat 01:24:32 PM 33.2556 -116.4025 28° Northeast 431 496 28,600 1,680 Climbing Los Angeles Center
Sat 01:25:35 PM 33.3650 -116.3317 28° Northeast 442 509 30,500 1,489 Climbing Los Angeles Center
Sat 01:26:49 PM 33.4736 -116.2608 29° Northeast 445 512 32,000 662 Climbing Los Angeles Center
Sat 01:27:51 PM 33.5781 -116.1917 29° Northeast 434 499 32,000 339 Level Los Angeles Center
Sat 01:28:53 PM 33.6842 -116.0781 42° Northeast 434 499 32,700 1,403 Climbing Los Angeles Center
Sat 01:29:55 PM 33.7614 -115.9642 51° Northeast 439 505 34,900 1,984 Climbing Los Angeles Center
Sat 01:30:57 PM 33.8492 -115.8364 50° Northeast 419 482 36,800 1,008 Climbing Los Angeles Center
Sat 01:32:00 PM 33.9231 -115.7278 51° Northeast 418 481 37,000 96 Climbing Los Angeles Center
Sat 01:33:02 PM 33.9986 -115.6175 50° Northeast 424 488 37,000  Level Los Angeles Center
Sat 01:34:04 PM 34.0728 -115.5083 51° Northeast 423 487 37,000  Level Los Angeles Center
Sat 01:35:06 PM 34.1467 -115.3994 51° Northeast 421 484 37,000  Level Los Angeles Center
Sat 01:36:08 PM 34.2203 -115.2894 51° Northeast 422 486 37,000 -581 Level Los Angeles Center
Sat 01:37:10 PM 34.3106 -115.1581 50° Northeast 423 487 35,800 -1,016 Descending Los Angeles Center
Sat 01:38:12 PM 34.3853 -115.0472 51° Northeast 426 490 34,900 -919 Descending Los Angeles Center
Sat 01:39:14 PM 34.4586 -114.9344 52° Northeast 425 489 33,900 -919 Descending Los Angeles Center
Sat 01:40:16 PM 34.5317 -114.8281 50° Northeast 412 474 33,000 -435 Descending Los Angeles Center
Sat 01:41:18 PM 34.6036 -114.7192 51° Northeast 412 474 33,000  Level Los Angeles Center
Sat 01:42:21 PM 34.6808 -114.6014 51° Northeast 415 478 33,000  Level Los Angeles Center
Sat 01:43:23 PM 34.7533 -114.4925 51° Northeast 414 476 33,000  Level Los Angeles Center
Sat 01:44:25 PM 34.8225 -114.3450 60° Northeast 420 483 33,000  Level Los Angeles Center
Sat 01:45:27 PM 34.8772 -114.2208 62° Northeast 417 480 33,000  Level Los Angeles Center
Sat 01:46:29 PM 34.9322 -114.0947 62° Northeast 419 482 33,000  Level Los Angeles Center
Sat 01:47:31 PM 34.9875 -113.9678 62° Northeast 423 487 33,000  Level Los Angeles Center
Sat 01:48:33 PM 35.0458 -113.8367 61° Northeast 426 490 33,000  Level Los Angeles Center
Sat 01:49:35 PM 35.1003 -113.7100 62° Northeast 423 487 33,000  Level Los Angeles Center
Sat 01:50:37 PM 35.1550 -113.5844 62° Northeast 420 483 33,000  Level Los Angeles Center
Sat 01:51:39 PM 35.2206 -113.4319 62° Northeast 424 488 33,000  Level Los Angeles Center
Sat 01:53:00 PM 35.2887 -113.2618 64° Northeast  Level FlightAware Approximate
Sat 01:53:44 PM 35.3289 -113.1800 64° Northeast 422 486 33,000  Level Los Angeles Center
Sat 01:54:46 PM 35.3836 -113.0522 62° Northeast 423 487 33,000  Level Los Angeles Center
Sat 01:55:48 PM 35.4425 -112.9125 63° Northeast 426 490 33,000  Level Los Angeles Center
Sat 01:56:50 PM 35.4958 -112.7872 62° Northeast 418 481 33,000  Level Los Angeles Center
Sat 01:57:52 PM 35.5492 -112.6592 63° Northeast 421 484 33,000  Level Los Angeles Center
Sat 01:58:54 PM 35.6044 -112.5278 63° Northeast 429 494 33,000 48 Level Los Angeles Center
Sat 01:59:56 PM 35.6689 -112.3722 63° Northeast 428 493 33,100 823 Climbing Los Angeles Center
Sat 02:00:58 PM 35.7253 -112.2403 62° Northeast 434 499 34,700 919 Climbing Los Angeles Center
Sat 02:02:00 PM 35.7792 -112.1072 63° Northeast 437 503 35,000 145 Climbing Los Angeles Center
Sat 02:03:02 PM 35.8350 -111.9750 62° Northeast 438 504 35,000  Level Los Angeles Center
Sat 02:04:05 PM 35.8764 -111.8678 65° Northeast 436 502 35,000  Level Los Angeles Center
Sat 02:05:07 PM 35.9533 -111.6819 63° Northeast 435 501 35,000  Level Los Angeles Center
Sat 02:06:08 PM 36.0089 -111.5481 63° Northeast 438 504 35,000  Level Denver Center
Sat 02:07:09 PM 36.0633 -111.4156 63° Northeast 436 502 35,000  Level Denver Center
Sat 02:08:11 PM 36.1172 -111.2817 63° Northeast 436 502 35,000  Level Denver Center
Sat 02:09:13 PM 36.1778 -111.1536 60° Northeast 434 499 35,000  Level Denver Center
Sat 02:10:15 PM 36.2400 -111.0267 59° Northeast 433 498 35,000  Level Denver Center
Sat 02:11:17 PM 36.3142 -110.8711 59° Northeast 437 503 35,000  Level Denver Center
Sat 02:12:18 PM 36.3750 -110.7447 59° Northeast 432 497 35,000  Level Denver Center
Sat 02:13:20 PM 36.4369 -110.6158 59° Northeast 435 501 35,000  Level Denver Center
Sat 02:14:22 PM 36.4853 -110.5133 60° Northeast 433 498 35,000  Level Denver Center
Sat 02:15:24 PM 36.5583 -110.3586 60° Northeast 434 499 35,000  Level Denver Center
Sat 02:16:25 PM 36.6158 -110.2328 60° Northeast 427 491 35,000  Level Denver Center
Sat 02:17:27 PM 36.6808 -110.0956 59° Northeast 433 498 35,000  Level Denver Center
Sat 02:18:29 PM 36.7486 -109.9511 60° Northeast 431 496 35,000  Level Denver Center
Sat 02:19:31 PM 36.8064 -109.8264 60° Northeast 432 497 35,000  Level Denver Center
Sat 02:20:32 PM 36.8725 -109.6822 60° Northeast 428 493 35,000  Level Denver Center
Sat 02:21:34 PM 36.9303 -109.5575 60° Northeast 430 495 35,000  Level Denver Center
Sat 02:22:35 PM 36.9786 -109.4536 60° Northeast 431 496 35,000  Level Denver Center
Sat 02:23:37 PM 37.0550 -109.2867 60° Northeast 433 498 35,000  Level Denver Center
Sat 02:24:39 PM 37.1133 -109.1597 60° Northeast 436 502 35,000  Level Denver Center
Sat 02:25:40 PM 37.1800 -109.0114 61° Northeast 436 502 35,000  Level Denver Center
Sat 02:26:42 PM 37.2375 -108.8839 60° Northeast 438 504 35,000  Level Denver Center
Sat 02:27:43 PM 37.2947 -108.7564 61° Northeast 437 503 35,000  Level Denver Center
Sat 02:28:45 PM 37.3625 -108.6058 60° Northeast 441 507 35,000  Level Denver Center
Sat 02:29:47 PM 37.4189 -108.4789 61° Northeast 438 504 35,000  Level Denver Center
Sat 02:30:48 PM 37.4850 -108.3311 61° Northeast 435 501 35,000  Level Denver Center
Sat 02:31:49 PM 37.5333 -108.2219 61° Northeast 441 507 35,000  Level Denver Center
Sat 02:32:51 PM 37.5994 -108.0708 61° Northeast 441 507 35,000  Level Denver Center
Sat 02:33:53 PM 37.6658 -107.9203 61° Northeast 440 506 35,000  Level Denver Center
Sat 02:34:55 PM 37.7222 -107.7914 61° Northeast 439 505 35,000  Level Denver Center
Sat 02:35:56 PM 37.7883 -107.6403 61° Northeast 440 506 35,000  Level Denver Center
Sat 02:36:58 PM 37.8456 -107.5061 62° Northeast 447 514 35,000  Level Denver Center
Sat 02:37:59 PM 37.9133 -107.3522 61° Northeast 448 516 35,000  Level Denver Center
Sat 02:39:01 PM 37.9700 -107.2186 62° Northeast 448 516 35,000  Level Denver Center
Sat 02:40:03 PM 38.0297 -107.0794 61° Northeast 449 517 35,000  Level Denver Center
Sat 02:41:04 PM 38.0858 -106.9494 61° Northeast 446 513 35,000  Level Denver Center
Sat 02:42:06 PM 38.1511 -106.7931 62° Northeast 444 511 35,000 -439 Level Denver Center
Sat 02:43:07 PM 38.2078 -106.6597 62° Northeast 450 518 34,100 -976 Descending Denver Center
Sat 02:44:09 PM 38.2922 -106.5239 52° Northeast 440 506 33,000 -976 Descending Denver Center
Sat 02:45:10 PM 38.3617 -106.4372 44° Northeast 437 503 32,100 -934 Descending Denver Center
Sat 02:46:11 PM 38.4467 -106.3308 44° Northeast 430 495 31,100 -1,073 Descending Denver Center
Sat 02:47:13 PM 38.5464 -106.2067 44° Northeast 418 481 29,900 -1,065 Descending Denver Center
Sat 02:48:15 PM 38.6275 -106.1064 44° Northeast 409 471 28,900 -976 Descending Denver Center
Sat 02:49:16 PM 38.7089 -106.0039 44° Northeast 407 468 27,900 -1,024 Descending Denver Center
Sat 02:50:18 PM 38.8053 -105.8814 45° Northeast 415 478 26,800 -976 Descending Denver Center
Sat 02:51:19 PM 38.8806 -105.7861 45° Northeast 420 483 25,900 -976 Descending Denver Center
Sat 02:52:21 PM 38.9753 -105.6644 45° Northeast 427 491 24,800 -1,024 Descending Denver Center
Sat 02:53:22 PM 39.0550 -105.5633 45° Northeast 422 486 23,800 -1,024 Descending Denver Center
Sat 02:54:24 PM 39.1406 -105.4533 45° Northeast 414 476 22,700 -1,122 Descending Denver Center
Sat 02:55:25 PM 39.2222 -105.3531 44° Northeast 395 455 21,500 -1,073 Descending Denver Center
Sat 02:56:27 PM 39.3019 -105.2589 42° Northeast 362 417 20,500 -1,073 Descending Denver Center
Sat 02:57:28 PM 39.3769 -105.1889 36° Northeast 335 386 19,300 -1,623 Descending Denver Center
Sat 02:58:29 PM 39.4458 -105.1192 38° Northeast 316 364 17,200 -1,659 Descending Denver Center
Sat 02:59:31 PM 39.5219 -105.0464 36° Northeast 315 362 15,900 -878 Descending Denver Center
Sat 03:00:32 PM 39.5889 -104.9789 38° Northeast 302 348 15,400 -780 Descending Denver Center
Sat 03:01:34 PM 39.6519 -104.9178 37° Northeast 284 327 14,300 -1,022 Descending Denver Center
Sat 03:02:47 PM 39.7192 -104.8528 37° Northeast 284 327 13,100 -1,022 Descending Denver Center
Sat 03:03:49 PM 39.8028 -104.8403 North 263 303 12,000 -1,024 Descending Denver Center
Sat 03:04:50 PM 39.8828 -104.8392 North 263 303 11,000 -585 Descending Denver Center
Sat 03:05:52 PM 39.9528 -104.8383 North 251 289 10,800 -634 Descending Denver Center
Sat 03:06:53 PM 40.0239 -104.8397 359° North 254 292 9,700 -1,073 Descending Denver Center
Sat 03:07:55 PM 40.0942 -104.8253 North 264 304 8,600 -1,268 Descending Denver Center
Sat 03:08:56 PM 40.0753 -104.7500 108° East 239 275 7,100 -780 Descending Denver Center
Sat 03:09:58 PM 40.0225 -104.7175 155° Southeast 203 234 7,000 -98 Descending Denver Center
Sat 03:10:59 PM 39.9744 -104.6964 161° South 183 211 6,900 -488 Descending Denver Center
Sat 03:12:01 PM 39.9264 -104.6956 179° South 161 185 6,000 -780 Descending Denver Center
Sat 03:13:02 PM 39.8864 -104.6967 181° South 155 178 5,300 -689 Descending Denver Center
Sat 03:15:00 PM 39.8617 -104.6732 North  Level Estimated
Sat 03:22:00 PM 39.8617 -104.6732 North  Level Estimated
Sat 03:23:00 PM 39.8617 -104.6732 North  Level Estimated
Sat 03:24:00 PM 39.8617 -104.6732 North  Level Estimated

Login

Don't have an account? Register now (free) for customized features, flight alerts, and more!